sensor_id;sensor_type;location;lat;lon;timestamp;temperature;humidity
47805;DHT22;33568;45.286;9.900;2023-02-01T00:00:25;4.30;94.40
47805;DHT22;33568;45.286;9.900;2023-02-01T00:02:51;4.30;94.30
47805;DHT22;33568;45.286;9.900;2023-02-01T00:05:18;4.30;94.20
47805;DHT22;33568;45.286;9.900;2023-02-01T00:07:47;4.30;94.30
47805;DHT22;33568;45.286;9.900;2023-02-01T00:10:14;4.30;94.30
47805;DHT22;33568;45.286;9.900;2023-02-01T00:12:40;4.30;94.40
47805;DHT22;33568;45.286;9.900;2023-02-01T00:15:07;4.30;95.10
47805;DHT22;33568;45.286;9.900;2023-02-01T00:17:34;4.30;94.50
47805;DHT22;33568;45.286;9.900;2023-02-01T00:20:00;4.30;94.40
47805;DHT22;33568;45.286;9.900;2023-02-01T00:22:28;4.40;94.40
47805;DHT22;33568;45.286;9.900;2023-02-01T00:24:54;4.40;94.40
47805;DHT22;33568;45.286;9.900;2023-02-01T00:27:20;4.50;94.50
47805;DHT22;33568;45.286;9.900;2023-02-01T00:29:47;4.50;94.60
47805;DHT22;33568;45.286;9.900;2023-02-01T00:32:13;4.50;94.60
47805;DHT22;33568;45.286;9.900;2023-02-01T00:34:40;4.40;95.30
47805;DHT22;33568;45.286;9.900;2023-02-01T00:37:06;4.50;94.70
47805;DHT22;33568;45.286;9.900;2023-02-01T00:39:33;4.50;94.60
47805;DHT22;33568;45.286;9.900;2023-02-01T00:42:00;4.40;94.50
47805;DHT22;33568;45.286;9.900;2023-02-01T00:44:28;4.30;94.40
47805;DHT22;33568;45.286;9.900;2023-02-01T00:46:54;4.20;94.40
47805;DHT22;33568;45.286;9.900;2023-02-01T00:49:20;4.00;94.60
47805;DHT22;33568;45.286;9.900;2023-02-01T00:51:47;3.90;94.50
47805;DHT22;33568;45.286;9.900;2023-02-01T00:54:13;3.90;94.40
47805;DHT22;33568;45.286;9.900;2023-02-01T00:56:40;3.80;94.30
47805;DHT22;33568;45.286;9.900;2023-02-01T00:59:07;3.80;94.40
47805;DHT22;33568;45.286;9.900;2023-02-01T01:01:34;3.80;94.50
47805;DHT22;33568;45.286;9.900;2023-02-01T01:04:00;3.80;94.50
47805;DHT22;33568;45.286;9.900;2023-02-01T01:06:30;3.70;95.10
47805;DHT22;33568;45.286;9.900;2023-02-01T01:08:58;3.70;94.60
47805;DHT22;33568;45.286;9.900;2023-02-01T01:11:27;3.80;94.50
47805;DHT22;33568;45.286;9.900;2023-02-01T01:13:56;3.70;94.50
47805;DHT22;33568;45.286;9.900;2023-02-01T01:16:24;3.70;94.50
47805;DHT22;33568;45.286;9.900;2023-02-01T01:18:51;3.80;94.60
47805;DHT22;33568;45.286;9.900;2023-02-01T01:21:18;3.70;94.60
47805;DHT22;33568;45.286;9.900;2023-02-01T01:23:45;3.70;94.60
47805;DHT22;33568;45.286;9.900;2023-02-01T01:26:15;3.80;94.70
47805;DHT22;33568;45.286;9.900;2023-02-01T01:28:42;3.80;94.80
47805;DHT22;33568;45.286;9.900;2023-02-01T01:31:13;3.80;94.80
47805;DHT22;33568;45.286;9.900;2023-02-01T01:33:41;3.90;94.90
47805;DHT22;33568;45.286;9.900;2023-02-01T01:36:09;3.90;94.80
47805;DHT22;33568;45.286;9.900;2023-02-01T01:38:40;3.80;94.80
47805;DHT22;33568;45.286;9.900;2023-02-01T01:41:08;3.90;94.90
47805;DHT22;33568;45.286;9.900;2023-02-01T01:44:06;3.90;94.80
47805;DHT22;33568;45.286;9.900;2023-02-01T01:46:38;3.80;94.90
47805;DHT22;33568;45.286;9.900;2023-02-01T01:49:24;3.80;94.90
47805;DHT22;33568;45.286;9.900;2023-02-01T01:51:57;3.70;94.90
47805;DHT22;33568;45.286;9.900;2023-02-01T01:56:54;3.70;94.80
47805;DHT22;33568;45.286;9.900;2023-02-01T01:59:23;3.60;94.80
47805;DHT22;33568;45.286;9.900;2023-02-01T02:01:51;3.60;94.80
47805;DHT22;33568;45.286;9.900;2023-02-01T02:04:18;3.60;94.80
47805;DHT22;33568;45.286;9.900;2023-02-01T02:09:16;3.50;94.80
47805;DHT22;33568;45.286;9.900;2023-02-01T02:11:42;3.50;94.90
47805;DHT22;33568;45.286;9.900;2023-02-01T02:14:12;3.40;95.50
47805;DHT22;33568;45.286;9.900;2023-02-01T02:16:48;3.50;95.10
47805;DHT22;33568;45.286;9.900;2023-02-01T02:19:43;3.50;95.10
47805;DHT22;33568;45.286;9.900;2023-02-01T02:38:41;3.50;95.80
47805;DHT22;33568;45.286;9.900;2023-02-01T02:44:55;3.60;96.20
47805;DHT22;33568;45.286;9.900;2023-02-01T02:50:15;3.60;96.30
47805;DHT22;33568;45.286;9.900;2023-02-01T02:53:25;3.60;96.10
47805;DHT22;33568;45.286;9.900;2023-02-01T02:56:13;3.60;96.30
47805;DHT22;33568;45.286;9.900;2023-02-01T02:58:59;3.50;96.60
47805;DHT22;33568;45.286;9.900;2023-02-01T03:01:45;3.50;96.70
47805;DHT22;33568;45.286;9.900;2023-02-01T03:04:30;3.50;96.60
47805;DHT22;33568;45.286;9.900;2023-02-01T03:06:57;3.50;97.00
47805;DHT22;33568;45.286;9.900;2023-02-01T03:09:31;3.50;97.00
47805;DHT22;33568;45.286;9.900;2023-02-01T03:12:04;3.50;97.10
47805;DHT22;33568;45.286;9.900;2023-02-01T03:14:57;3.40;96.70
47805;DHT22;33568;45.286;9.900;2023-02-01T03:17:32;3.30;96.80
47805;DHT22;33568;45.286;9.900;2023-02-01T03:20:01;3.30;96.90
47805;DHT22;33568;45.286;9.900;2023-02-01T03:22:30;3.30;96.80
47805;DHT22;33568;45.286;9.900;2023-02-01T03:25:05;3.20;96.60
47805;DHT22;33568;45.286;9.900;2023-02-01T03:27:45;3.10;96.70
47805;DHT22;33568;45.286;9.900;2023-02-01T03:30:25;3.00;96.80
47805;DHT22;33568;45.286;9.900;2023-02-01T03:32:56;3.00;97.00
47805;DHT22;33568;45.286;9.900;2023-02-01T03:38:31;2.90;97.20
47805;DHT22;33568;45.286;9.900;2023-02-01T03:41:11;2.90;97.20
47805;DHT22;33568;45.286;9.900;2023-02-01T03:46:23;3.00;97.10
47805;DHT22;33568;45.286;9.900;2023-02-01T03:48:53;3.00;96.90
47805;DHT22;33568;45.286;9.900;2023-02-01T03:51:21;3.00;96.80
47805;DHT22;33568;45.286;9.900;2023-02-01T03:53:49;3.00;96.70
47805;DHT22;33568;45.286;9.900;2023-02-01T03:56:18;3.00;96.80
47805;DHT22;33568;45.286;9.900;2023-02-01T03:58:47;3.00;97.00
47805;DHT22;33568;45.286;9.900;2023-02-01T04:01:28;3.00;97.10
47805;DHT22;33568;45.286;9.900;2023-02-01T04:03:56;3.10;97.40
47805;DHT22;33568;45.286;9.900;2023-02-01T04:06:24;3.10;97.40
47805;DHT22;33568;45.286;9.900;2023-02-01T04:08:51;3.20;97.50
47805;DHT22;33568;45.286;9.900;2023-02-01T04:11:18;3.30;97.60
47805;DHT22;33568;45.286;9.900;2023-02-01T04:13:44;3.30;97.60
47805;DHT22;33568;45.286;9.900;2023-02-01T04:16:11;3.40;97.60
47805;DHT22;33568;45.286;9.900;2023-02-01T04:18:38;3.40;97.50
47805;DHT22;33568;45.286;9.900;2023-02-01T04:21:04;3.40;97.40
47805;DHT22;33568;45.286;9.900;2023-02-01T04:23:31;3.40;97.30
47805;DHT22;33568;45.286;9.900;2023-02-01T04:26:02;3.30;97.50
47805;DHT22;33568;45.286;9.900;2023-02-01T04:28:29;3.20;97.10
47805;DHT22;33568;45.286;9.900;2023-02-01T04:30:55;3.10;96.90
47805;DHT22;33568;45.286;9.900;2023-02-01T04:33:22;3.10;96.90
47805;DHT22;33568;45.286;9.900;2023-02-01T04:35:49;3.00;96.70
47805;DHT22;33568;45.286;9.900;2023-02-01T04:38:15;3.00;96.70
47805;DHT22;33568;45.286;9.900;2023-02-01T04:40:41;3.00;96.60
47805;DHT22;33568;45.286;9.900;2023-02-01T04:43:08;2.90;96.80
47805;DHT22;33568;45.286;9.900;2023-02-01T04:45:34;2.90;96.60
47805;DHT22;33568;45.286;9.900;2023-02-01T04:48:00;2.80;96.80
47805;DHT22;33568;45.286;9.900;2023-02-01T04:50:27;2.80;96.50
47805;DHT22;33568;45.286;9.900;2023-02-01T04:52:53;2.80;96.40
47805;DHT22;33568;45.286;9.900;2023-02-01T04:55:19;2.70;96.50
47805;DHT22;33568;45.286;9.900;2023-02-01T04:57:46;2.70;96.40
47805;DHT22;33568;45.286;9.900;2023-02-01T05:00:13;2.70;96.30
47805;DHT22;33568;45.286;9.900;2023-02-01T05:02:39;2.70;96.40
47805;DHT22;33568;45.286;9.900;2023-02-01T05:05:06;2.70;96.30
47805;DHT22;33568;45.286;9.900;2023-02-01T05:07:32;2.70;96.30
47805;DHT22;33568;45.286;9.900;2023-02-01T05:09:59;2.70;96.30
47805;DHT22;33568;45.286;9.900;2023-02-01T05:12:25;2.70;96.30
47805;DHT22;33568;45.286;9.900;2023-02-01T05:15:10;2.70;96.30
47805;DHT22;33568;45.286;9.900;2023-02-01T05:17:36;2.70;96.30
47805;DHT22;33568;45.286;9.900;2023-02-01T05:20:03;2.70;96.30
47805;DHT22;33568;45.286;9.900;2023-02-01T05:22:29;2.70;96.30
47805;DHT22;33568;45.286;9.900;2023-02-01T05:24:56;2.70;96.20
47805;DHT22;33568;45.286;9.900;2023-02-01T05:27:22;2.60;96.40
47805;DHT22;33568;45.286;9.900;2023-02-01T05:29:49;2.50;96.40
47805;DHT22;33568;45.286;9.900;2023-02-01T05:32:15;2.40;96.70
47805;DHT22;33568;45.286;9.900;2023-02-01T05:34:41;2.40;97.00
47805;DHT22;33568;45.286;9.900;2023-02-01T05:37:08;2.30;97.10
47805;DHT22;33568;45.286;9.900;2023-02-01T05:39:34;2.30;97.70
47805;DHT22;33568;45.286;9.900;2023-02-01T05:42:00;2.30;97.20
47805;DHT22;33568;45.286;9.900;2023-02-01T05:44:27;2.30;97.30
47805;DHT22;33568;45.286;9.900;2023-02-01T05:46:53;2.30;97.20
47805;DHT22;33568;45.286;9.900;2023-02-01T05:49:20;2.30;97.20
47805;DHT22;33568;45.286;9.900;2023-02-01T05:51:46;2.40;97.10
47805;DHT22;33568;45.286;9.900;2023-02-01T05:54:12;2.40;97.30
47805;DHT22;33568;45.286;9.900;2023-02-01T05:56:39;2.30;97.30
47805;DHT22;33568;45.286;9.900;2023-02-01T05:59:06;2.30;97.00
47805;DHT22;33568;45.286;9.900;2023-02-01T06:01:33;2.40;97.00
47805;DHT22;33568;45.286;9.900;2023-02-01T06:04:00;2.40;97.00
47805;DHT22;33568;45.286;9.900;2023-02-01T06:06:26;2.40;96.90
47805;DHT22;33568;45.286;9.900;2023-02-01T06:08:53;2.40;96.90
47805;DHT22;33568;45.286;9.900;2023-02-01T06:11:19;2.30;97.30
47805;DHT22;33568;45.286;9.900;2023-02-01T06:13:45;2.30;96.80
47805;DHT22;33568;45.286;9.900;2023-02-01T06:16:12;2.30;96.70
47805;DHT22;33568;45.286;9.900;2023-02-01T06:18:41;2.20;96.90
47805;DHT22;33568;45.286;9.900;2023-02-01T06:21:08;2.10;97.00
47805;DHT22;33568;45.286;9.900;2023-02-01T06:23:34;2.10;97.00
47805;DHT22;33568;45.286;9.900;2023-02-01T06:26:05;2.10;97.00
47805;DHT22;33568;45.286;9.900;2023-02-01T06:28:32;2.00;97.40
47805;DHT22;33568;45.286;9.900;2023-02-01T06:31:04;2.00;97.20
47805;DHT22;33568;45.286;9.900;2023-02-01T06:33:34;2.00;97.20
47805;DHT22;33568;45.286;9.900;2023-02-01T06:36:02;2.10;97.10
47805;DHT22;33568;45.286;9.900;2023-02-01T06:38:30;2.10;97.00
47805;DHT22;33568;45.286;9.900;2023-02-01T06:40:58;2.10;96.90
47805;DHT22;33568;45.286;9.900;2023-02-01T06:43:25;2.10;96.80
47805;DHT22;33568;45.286;9.900;2023-02-01T06:45:53;2.10;96.80
47805;DHT22;33568;45.286;9.900;2023-02-01T06:48:19;2.20;96.80
47805;DHT22;33568;45.286;9.900;2023-02-01T06:50:46;2.10;96.70
47805;DHT22;33568;45.286;9.900;2023-02-01T06:53:12;2.20;96.80
47805;DHT22;33568;45.286;9.900;2023-02-01T06:55:39;2.20;96.90
47805;DHT22;33568;45.286;9.900;2023-02-01T06:58:05;2.20;96.90
47805;DHT22;33568;45.286;9.900;2023-02-01T07:00:32;2.20;96.80
47805;DHT22;33568;45.286;9.900;2023-02-01T07:02:58;2.20;96.80
47805;DHT22;33568;45.286;9.900;2023-02-01T07:05:25;2.20;97.70
47805;DHT22;33568;45.286;9.900;2023-02-01T07:07:52;2.30;97.40
47805;DHT22;33568;45.286;9.900;2023-02-01T07:10:18;2.30;97.30
47805;DHT22;33568;45.286;9.900;2023-02-01T07:12:45;2.40;97.30
47805;DHT22;33568;45.286;9.900;2023-02-01T07:15:11;2.40;97.30
47805;DHT22;33568;45.286;9.900;2023-02-01T07:17:37;2.50;97.20
47805;DHT22;33568;45.286;9.900;2023-02-01T07:20:04;2.50;97.20
47805;DHT22;33568;45.286;9.900;2023-02-01T07:22:31;2.50;97.40
47805;DHT22;33568;45.286;9.900;2023-02-01T07:24:57;2.60;97.70
47805;DHT22;33568;45.286;9.900;2023-02-01T07:27:24;2.60;97.60
47805;DHT22;33568;45.286;9.900;2023-02-01T07:29:52;2.60;97.70
47805;DHT22;33568;45.286;9.900;2023-02-01T07:32:18;2.70;97.70
47805;DHT22;33568;45.286;9.900;2023-02-01T07:34:45;2.70;98.00
47805;DHT22;33568;45.286;9.900;2023-02-01T07:37:11;2.80;98.00
47805;DHT22;33568;45.286;9.900;2023-02-01T07:39:38;2.80;98.60
47805;DHT22;33568;45.286;9.900;2023-02-01T07:42:04;2.90;97.80
47805;DHT22;33568;45.286;9.900;2023-02-01T07:44:31;2.90;97.60
47805;DHT22;33568;45.286;9.900;2023-02-01T07:46:57;3.00;97.50
47805;DHT22;33568;45.286;9.900;2023-02-01T07:49:24;3.10;97.60
47805;DHT22;33568;45.286;9.900;2023-02-01T07:51:50;3.10;97.50
47805;DHT22;33568;45.286;9.900;2023-02-01T07:54:17;3.20;97.40
47805;DHT22;33568;45.286;9.900;2023-02-01T07:56:43;3.20;97.60
47805;DHT22;33568;45.286;9.900;2023-02-01T07:59:10;3.20;98.30
47805;DHT22;33568;45.286;9.900;2023-02-01T08:01:39;3.30;97.80
47805;DHT22;33568;45.286;9.900;2023-02-01T08:04:05;3.40;97.80
47805;DHT22;33568;45.286;9.900;2023-02-01T08:06:33;3.50;97.70
47805;DHT22;33568;45.286;9.900;2023-02-01T08:09:00;3.50;98.40
47805;DHT22;33568;45.286;9.900;2023-02-01T08:11:27;3.60;97.60
47805;DHT22;33568;45.286;9.900;2023-02-01T08:13:54;3.70;97.40
47805;DHT22;33568;45.286;9.900;2023-02-01T08:16:21;3.80;97.40
47805;DHT22;33568;45.286;9.900;2023-02-01T08:18:48;3.90;97.40
47805;DHT22;33568;45.286;9.900;2023-02-01T08:21:16;4.00;97.50
47805;DHT22;33568;45.286;9.900;2023-02-01T08:23:43;4.00;97.90
47805;DHT22;33568;45.286;9.900;2023-02-01T08:26:12;4.20;97.50
47805;DHT22;33568;45.286;9.900;2023-02-01T08:28:42;4.30;97.40
47805;DHT22;33568;45.286;9.900;2023-02-01T08:31:13;4.40;97.30
47805;DHT22;33568;45.286;9.900;2023-02-01T08:33:42;4.40;97.40
47805;DHT22;33568;45.286;9.900;2023-02-01T08:36:11;4.40;97.50
47805;DHT22;33568;45.286;9.900;2023-02-01T08:38:38;4.40;97.60
47805;DHT22;33568;45.286;9.900;2023-02-01T08:41:11;4.40;97.70
47805;DHT22;33568;45.286;9.900;2023-02-01T08:43:38;4.50;97.70
47805;DHT22;33568;45.286;9.900;2023-02-01T08:46:05;4.60;97.70
47805;DHT22;33568;45.286;9.900;2023-02-01T08:48:32;4.80;97.50
47805;DHT22;33568;45.286;9.900;2023-02-01T08:51:03;4.90;97.60
47805;DHT22;33568;45.286;9.900;2023-02-01T08:53:30;5.00;97.50
47805;DHT22;33568;45.286;9.900;2023-02-01T08:55:57;5.10;97.80
47805;DHT22;33568;45.286;9.900;2023-02-01T08:58:23;5.20;97.60
47805;DHT22;33568;45.286;9.900;2023-02-01T09:00:50;5.20;97.50
47805;DHT22;33568;45.286;9.900;2023-02-01T09:03:17;5.20;97.60
47805;DHT22;33568;45.286;9.900;2023-02-01T09:05:44;5.30;97.70
47805;DHT22;33568;45.286;9.900;2023-02-01T09:08:11;5.50;97.60
47805;DHT22;33568;45.286;9.900;2023-02-01T09:10:42;5.50;97.60
47805;DHT22;33568;45.286;9.900;2023-02-01T09:13:08;5.60;97.50
47805;DHT22;33568;45.286;9.900;2023-02-01T09:15:36;5.70;97.40
47805;DHT22;33568;45.286;9.900;2023-02-01T09:18:03;5.80;97.30
47805;DHT22;33568;45.286;9.900;2023-02-01T09:20:29;5.90;97.30
47805;DHT22;33568;45.286;9.900;2023-02-01T09:22:56;5.90;97.20
47805;DHT22;33568;45.286;9.900;2023-02-01T09:25:22;6.10;97.10
47805;DHT22;33568;45.286;9.900;2023-02-01T09:27:48;6.10;97.00
47805;DHT22;33568;45.286;9.900;2023-02-01T09:30:15;6.30;97.00
47805;DHT22;33568;45.286;9.900;2023-02-01T09:32:41;6.50;96.80
47805;DHT22;33568;45.286;9.900;2023-02-01T09:35:08;6.50;96.70
47805;DHT22;33568;45.286;9.900;2023-02-01T09:37:34;6.70;96.60
47805;DHT22;33568;45.286;9.900;2023-02-01T09:40:00;6.80;96.50
47805;DHT22;33568;45.286;9.900;2023-02-01T09:45:17;7.20;96.30
47805;DHT22;33568;45.286;9.900;2023-02-01T09:47:55;7.30;96.20
47805;DHT22;33568;45.286;9.900;2023-02-01T09:50:36;7.60;96.40
47805;DHT22;33568;45.286;9.900;2023-02-01T09:55:46;12.00;91.70
47805;DHT22;33568;45.286;9.900;2023-02-01T09:58:27;14.50;85.00
47805;DHT22;33568;45.286;9.900;2023-02-01T10:00:59;16.40;76.80
47805;DHT22;33568;45.286;9.900;2023-02-01T10:03:29;18.20;71.00
47805;DHT22;33568;45.286;9.900;2023-02-01T10:06:26;19.50;65.40
47805;DHT22;33568;45.286;9.900;2023-02-01T10:14:41;21.80;58.50
47805;DHT22;33568;45.286;9.900;2023-02-01T10:17:47;22.60;50.40
47805;DHT22;33568;45.286;9.900;2023-02-01T10:21:02;22.40;51.50
47805;DHT22;33568;45.286;9.900;2023-02-01T10:26:24;23.10;50.10
47805;DHT22;33568;45.286;9.900;2023-02-01T10:28:57;23.90;49.20
47805;DHT22;33568;45.286;9.900;2023-02-01T10:31:29;24.30;49.20
47805;DHT22;33568;45.286;9.900;2023-02-01T10:33:59;24.00;49.00
47805;DHT22;33568;45.286;9.900;2023-02-01T10:36:36;24.40;48.50
47805;DHT22;33568;45.286;9.900;2023-02-01T10:39:09;24.40;46.70
47805;DHT22;33568;45.286;9.900;2023-02-01T10:41:39;24.60;47.10
47805;DHT22;33568;45.286;9.900;2023-02-01T10:44:14;24.80;46.30
47805;DHT22;33568;45.286;9.900;2023-02-01T10:46:41;25.10;45.50
47805;DHT22;33568;45.286;9.900;2023-02-01T10:49:16;25.60;45.30
47805;DHT22;33568;45.286;9.900;2023-02-01T10:52:07;25.10;44.00
47805;DHT22;33568;45.286;9.900;2023-02-01T10:54:38;24.70;42.50
47805;DHT22;33568;45.286;9.900;2023-02-01T10:57:10;24.00;45.10
47805;DHT22;33568;45.286;9.900;2023-02-01T10:59:37;24.00;44.80
47805;DHT22;33568;45.286;9.900;2023-02-01T11:04:42;24.30;43.60
47805;DHT22;33568;45.286;9.900;2023-02-01T11:07:23;25.00;44.70
47805;DHT22;33568;45.286;9.900;2023-02-01T11:09:53;25.80;42.50
47805;DHT22;33568;45.286;9.900;2023-02-01T11:12:36;25.80;43.10
47805;DHT22;33568;45.286;9.900;2023-02-01T11:15:14;26.30;41.40
47805;DHT22;33568;45.286;9.900;2023-02-01T11:17:45;26.90;41.50
47805;DHT22;33568;45.286;9.900;2023-02-01T11:20:16;27.70;42.00
47805;DHT22;33568;45.286;9.900;2023-02-01T11:22:55;28.30;41.00
47805;DHT22;33568;45.286;9.900;2023-02-01T11:25:23;28.80;40.10
47805;DHT22;33568;45.286;9.900;2023-02-01T11:27:51;29.40;39.90
47805;DHT22;33568;45.286;9.900;2023-02-01T11:33:01;30.10;37.20
47805;DHT22;33568;45.286;9.900;2023-02-01T11:35:29;30.50;38.60
47805;DHT22;33568;45.286;9.900;2023-02-01T11:38:00;30.70;38.20
47805;DHT22;33568;45.286;9.900;2023-02-01T11:40:38;30.40;37.40
47805;DHT22;33568;45.286;9.900;2023-02-01T11:43:15;30.60;36.20
47805;DHT22;33568;45.286;9.900;2023-02-01T11:46:16;30.60;37.00
47805;DHT22;33568;45.286;9.900;2023-02-01T11:48:43;30.70;36.10
47805;DHT22;33568;45.286;9.900;2023-02-01T11:51:35;30.90;37.30
47805;DHT22;33568;45.286;9.900;2023-02-01T12:08:26;30.20;36.50
47805;DHT22;33568;45.286;9.900;2023-02-01T12:11:51;30.60;37.00
47805;DHT22;33568;45.286;9.900;2023-02-01T12:14:08;30.50;35.60
47805;DHT22;33568;45.286;9.900;2023-02-01T12:27:25;31.50;35.30
47805;DHT22;33568;45.286;9.900;2023-02-01T12:30:54;31.50;34.50
47805;DHT22;33568;45.286;9.900;2023-02-01T12:33:27;31.30;34.40
47805;DHT22;33568;45.286;9.900;2023-02-01T12:38:49;29.70;35.10
47805;DHT22;33568;45.286;9.900;2023-02-01T12:41:45;26.50;37.60
47805;DHT22;33568;45.286;9.900;2023-02-01T12:44:31;23.30;40.80
47805;DHT22;33568;45.286;9.900;2023-02-01T12:50:00;19.10;47.50
47805;DHT22;33568;45.286;9.900;2023-02-01T12:55:36;17.20;51.30
47805;DHT22;33568;45.286;9.900;2023-02-01T13:06:52;15.30;55.90
47805;DHT22;33568;45.286;9.900;2023-02-01T13:09:43;15.00;56.60
47805;DHT22;33568;45.286;9.900;2023-02-01T13:12:27;14.90;57.20
47805;DHT22;33568;45.286;9.900;2023-02-01T13:15:02;14.70;58.20
47805;DHT22;33568;45.286;9.900;2023-02-01T13:17:32;14.60;58.70
47805;DHT22;33568;45.286;9.900;2023-02-01T13:20:05;14.50;59.20
47805;DHT22;33568;45.286;9.900;2023-02-01T13:22:42;14.40;59.80
47805;DHT22;33568;45.286;9.900;2023-02-01T13:25:29;14.40;60.70
47805;DHT22;33568;45.286;9.900;2023-02-01T13:28:03;14.30;61.50
47805;DHT22;33568;45.286;9.900;2023-02-01T13:30:52;14.30;61.50
47805;DHT22;33568;45.286;9.900;2023-02-01T13:33:29;14.20;62.00
47805;DHT22;33568;45.286;9.900;2023-02-01T13:41:55;14.20;63.80
47805;DHT22;33568;45.286;9.900;2023-02-01T13:44:34;14.10;64.00
47805;DHT22;33568;45.286;9.900;2023-02-01T13:49:47;14.20;64.90
47805;DHT22;33568;45.286;9.900;2023-02-01T13:52:44;14.20;64.80
47805;DHT22;33568;45.286;9.900;2023-02-01T13:55:16;14.20;65.60
47805;DHT22;33568;45.286;9.900;2023-02-01T13:57:46;14.20;65.50
47805;DHT22;33568;45.286;9.900;2023-02-01T14:13:40;14.40;67.80
47805;DHT22;33568;45.286;9.900;2023-02-01T14:16:15;14.30;68.10
47805;DHT22;33568;45.286;9.900;2023-02-01T14:21:30;14.40;68.20
47805;DHT22;33568;45.286;9.900;2023-02-01T14:24:03;14.40;69.20
47805;DHT22;33568;45.286;9.900;2023-02-01T14:42:21;14.60;70.40
47805;DHT22;33568;45.286;9.900;2023-02-01T14:44:48;14.60;70.80
47805;DHT22;33568;45.286;9.900;2023-02-01T14:47:28;14.70;71.00
47805;DHT22;33568;45.286;9.900;2023-02-01T14:50:11;14.70;71.20
47805;DHT22;33568;45.286;9.900;2023-02-01T14:52:42;14.70;71.40
47805;DHT22;33568;45.286;9.900;2023-02-01T14:55:21;14.80;71.60
47805;DHT22;33568;45.286;9.900;2023-02-01T14:57:53;14.80;72.00
47805;DHT22;33568;45.286;9.900;2023-02-01T15:00:29;14.80;72.10
47805;DHT22;33568;45.286;9.900;2023-02-01T15:03:31;14.80;72.40
47805;DHT22;33568;45.286;9.900;2023-02-01T15:06:00;14.80;73.00
47805;DHT22;33568;45.286;9.900;2023-02-01T15:08:37;14.80;72.80
47805;DHT22;33568;45.286;9.900;2023-02-01T15:11:14;14.80;72.80
47805;DHT22;33568;45.286;9.900;2023-02-01T15:13:48;14.80;72.90
47805;DHT22;33568;45.286;9.900;2023-02-01T15:16:16;14.80;73.00
47805;DHT22;33568;45.286;9.900;2023-02-01T15:18:43;14.80;73.20
47805;DHT22;33568;45.286;9.900;2023-02-01T15:21:24;14.80;73.30
47805;DHT22;33568;45.286;9.900;2023-02-01T15:24:10;14.80;73.40
47805;DHT22;33568;45.286;9.900;2023-02-01T15:26:36;14.80;73.20
47805;DHT22;33568;45.286;9.900;2023-02-01T15:29:03;14.70;73.30
47805;DHT22;33568;45.286;9.900;2023-02-01T15:31:37;14.70;73.50
47805;DHT22;33568;45.286;9.900;2023-02-01T15:34:04;14.60;73.70
47805;DHT22;33568;45.286;9.900;2023-02-01T15:36:32;14.60;73.90
47805;DHT22;33568;45.286;9.900;2023-02-01T15:39:26;14.50;74.00
47805;DHT22;33568;45.286;9.900;2023-02-01T15:41:57;14.40;74.20
47805;DHT22;33568;45.286;9.900;2023-02-01T15:44:41;14.40;74.60
47805;DHT22;33568;45.286;9.900;2023-02-01T15:47:29;14.30;75.10
47805;DHT22;33568;45.286;9.900;2023-02-01T15:49:58;14.20;75.80
47805;DHT22;33568;45.286;9.900;2023-02-01T15:52:34;14.10;76.10
47805;DHT22;33568;45.286;9.900;2023-02-01T15:55:04;14.00;77.00
47805;DHT22;33568;45.286;9.900;2023-02-01T15:57:38;13.90;77.40
47805;DHT22;33568;45.286;9.900;2023-02-01T16:00:18;13.70;77.80
47805;DHT22;33568;45.286;9.900;2023-02-01T16:02:55;13.60;78.10
47805;DHT22;33568;45.286;9.900;2023-02-01T16:05:31;13.40;78.50
47805;DHT22;33568;45.286;9.900;2023-02-01T16:08:04;13.30;79.00
47805;DHT22;33568;45.286;9.900;2023-02-01T16:10:31;13.20;79.60
47805;DHT22;33568;45.286;9.900;2023-02-01T16:13:03;13.10;79.70
47805;DHT22;33568;45.286;9.900;2023-02-01T16:15:30;13.00;79.90
47805;DHT22;33568;45.286;9.900;2023-02-01T16:17:57;12.90;80.30
47805;DHT22;33568;45.286;9.900;2023-02-01T16:20:23;12.80;80.60
47805;DHT22;33568;45.286;9.900;2023-02-01T16:22:50;12.60;82.50
47805;DHT22;33568;45.286;9.900;2023-02-01T16:25:16;12.60;81.20
47805;DHT22;33568;45.286;9.900;2023-02-01T16:27:42;12.60;81.60
47805;DHT22;33568;45.286;9.900;2023-02-01T16:30:09;12.50;82.00
47805;DHT22;33568;45.286;9.900;2023-02-01T16:32:36;12.40;83.60
47805;DHT22;33568;45.286;9.900;2023-02-01T16:35:08;12.30;82.10
47805;DHT22;33568;45.286;9.900;2023-02-01T16:37:38;12.30;82.60
47805;DHT22;33568;45.286;9.900;2023-02-01T16:40:05;12.30;83.50
47805;DHT22;33568;45.286;9.900;2023-02-01T16:42:31;12.30;83.70
47805;DHT22;33568;45.286;9.900;2023-02-01T16:44:58;12.30;83.90
47805;DHT22;33568;45.286;9.900;2023-02-01T16:47:24;12.30;84.00
47805;DHT22;33568;45.286;9.900;2023-02-01T16:49:51;12.30;84.00
47805;DHT22;33568;45.286;9.900;2023-02-01T16:52:21;12.30;84.10
47805;DHT22;33568;45.286;9.900;2023-02-01T16:54:48;12.20;84.20
47805;DHT22;33568;45.286;9.900;2023-02-01T16:57:17;12.10;84.50
47805;DHT22;33568;45.286;9.900;2023-02-01T16:59:44;11.90;85.10
47805;DHT22;33568;45.286;9.900;2023-02-01T17:02:12;11.80;85.40
47805;DHT22;33568;45.286;9.900;2023-02-01T17:04:39;11.70;86.00
47805;DHT22;33568;45.286;9.900;2023-02-01T17:07:06;11.60;86.40
47805;DHT22;33568;45.286;9.900;2023-02-01T17:09:36;11.40;87.00
47805;DHT22;33568;45.286;9.900;2023-02-01T17:12:04;11.30;87.20
47805;DHT22;33568;45.286;9.900;2023-02-01T17:14:34;11.20;87.60
47805;DHT22;33568;45.286;9.900;2023-02-01T17:17:02;11.10;87.80
47805;DHT22;33568;45.286;9.900;2023-02-01T17:19:28;11.00;88.10
47805;DHT22;33568;45.286;9.900;2023-02-01T17:21:55;10.90;90.30
47805;DHT22;33568;45.286;9.900;2023-02-01T17:24:27;10.90;88.70
47805;DHT22;33568;45.286;9.900;2023-02-01T17:26:54;10.90;88.60
47805;DHT22;33568;45.286;9.900;2023-02-01T17:29:21;10.80;88.70
47805;DHT22;33568;45.286;9.900;2023-02-01T17:31:51;10.80;88.90
47805;DHT22;33568;45.286;9.900;2023-02-01T17:34:18;10.70;89.00
47805;DHT22;33568;45.286;9.900;2023-02-01T17:36:45;10.60;89.50
47805;DHT22;33568;45.286;9.900;2023-02-01T17:39:12;10.50;89.60
47805;DHT22;33568;45.286;9.900;2023-02-01T17:42:04;10.40;90.00
47805;DHT22;33568;45.286;9.900;2023-02-01T17:44:31;10.20;90.30
47805;DHT22;33568;45.286;9.900;2023-02-01T17:46:57;10.10;90.40
47805;DHT22;33568;45.286;9.900;2023-02-01T17:49:25;10.00;91.60
47805;DHT22;33568;45.286;9.900;2023-02-01T17:51:55;9.90;90.60
47805;DHT22;33568;45.286;9.900;2023-02-01T17:54:21;9.90;90.50
47805;DHT22;33568;45.286;9.900;2023-02-01T17:56:47;9.80;90.50
47805;DHT22;33568;45.286;9.900;2023-02-01T17:59:15;9.70;91.50
47805;DHT22;33568;45.286;9.900;2023-02-01T18:01:42;9.60;90.60
47805;DHT22;33568;45.286;9.900;2023-02-01T18:04:15;9.60;90.70
47805;DHT22;33568;45.286;9.900;2023-02-01T18:06:42;9.60;90.80
47805;DHT22;33568;45.286;9.900;2023-02-01T18:09:09;9.50;91.00
47805;DHT22;33568;45.286;9.900;2023-02-01T18:11:35;9.40;91.20
47805;DHT22;33568;45.286;9.900;2023-02-01T18:14:02;9.40;92.40
47805;DHT22;33568;45.286;9.900;2023-02-01T18:16:31;9.30;91.30
47805;DHT22;33568;45.286;9.900;2023-02-01T18:18:58;9.30;91.40